Time;durP1;ratioP1;P1;durP2;ratioP2;P2;SDS_P1;SDS_P2;PMS_P1;PMS_P2;Temp;Humidity;BMP_temperature;BMP_pressure;BME280_temperature;BME280_humidity;BME280_pressure;Samples;Min_cycle;Max_cycle;Signal;HPM_P1;HPM_P2
2023/05/07 00:00:17;;;;;;;6.13;5.63;;;8.60;99.90;;;;;;6198240;23;20178;-88
2023/05/07 00:02:47;;;;;;;7.38;5.15;;;8.70;99.90;;;;;;6223808;23;20453;-89
2023/05/07 00:05:17;;;;;;;7.30;5.32;;;8.80;99.90;;;;;;6221919;23;20228;-84
2023/05/07 00:07:46;;;;;;;9.38;6.43;;;8.80;99.90;;;;;;6223248;23;20432;-86
2023/05/07 00:10:13;;;;;;;10.15;6.15;;;8.70;99.90;;;;;;6206911;23;20489;-86
2023/05/07 00:12:40;;;;;;;8.27;6.13;;;8.70;99.90;;;;;;6238316;23;20190;-84
2023/05/07 00:15:08;;;;;;;6.85;6.15;;;8.70;99.90;;;;;;6230721;23;20251;-84
2023/05/07 00:17:35;;;;;;;7.47;6.85;;;8.70;99.90;;;;;;6223346;23;20184;-86
2023/05/07 00:20:03;;;;;;;6.35;5.75;;;8.70;99.90;;;;;;6221857;23;20179;-84
2023/05/07 00:22:32;;;;;;;7.60;6.68;;;8.70;99.90;;;;;;6222730;23;20230;-86
2023/05/07 00:25:00;;;;;;;7.47;6.82;;;8.70;99.90;;;;;;6221843;23;20427;-86
2023/05/07 00:27:26;;;;;;;5.85;5.15;;;8.80;99.90;;;;;;6225820;23;20242;-87
2023/05/07 00:29:53;;;;;;;7.57;6.18;;;8.80;99.90;;;;;;6222576;23;20209;-87
2023/05/07 00:32:21;;;;;;;7.05;6.13;;;8.80;99.90;;;;;;6171184;23;20842;-84
2023/05/07 00:34:48;;;;;;;7.07;6.35;;;8.70;99.90;;;;;;6221126;23;20187;-84
2023/05/07 00:37:15;;;;;;;5.88;5.28;;;8.80;99.90;;;;;;6221392;23;20505;-86
2023/05/07 00:39:43;;;;;;;6.13;5.50;;;8.90;99.90;;;;;;6221662;23;20186;-85
2023/05/07 00:42:10;;;;;;;7.03;6.43;;;9.00;99.90;;;;;;6222977;23;20183;-86
2023/05/07 00:44:41;;;;;;;6.45;5.40;;;8.90;99.90;;;;;;6197453;23;20588;-86
2023/05/07 00:47:10;;;;;;;5.88;5.38;;;8.80;99.90;;;;;;6222374;23;20163;-85
2023/05/07 00:49:45;;;;;;;6.55;5.85;;;8.90;99.90;;;;;;6227864;23;20182;-86
2023/05/07 00:52:16;;;;;;;7.38;5.43;;;9.00;99.90;;;;;;6236173;23;20521;-87
2023/05/07 00:54:44;;;;;;;11.85;6.00;;;8.90;99.90;;;;;;6210076;23;20165;-86
2023/05/07 00:57:11;;;;;;;6.55;5.85;;;8.90;99.90;;;;;;6226714;23;20176;-84
2023/05/07 00:59:39;;;;;;;6.82;5.78;;;8.90;99.90;;;;;;6223067;23;20510;-87
2023/05/07 01:02:06;;;;;;;7.65;7.00;;;9.00;99.90;;;;;;6198264;23;20188;-85
2023/05/07 01:04:33;;;;;;;5.88;5.35;;;9.00;99.90;;;;;;6223601;23;20200;-86
2023/05/07 01:07:02;;;;;;;5.50;5.00;;;9.00;99.90;;;;;;6193459;23;20183;-89
2023/05/07 01:09:29;;;;;;;6.45;5.93;;;9.00;99.90;;;;;;6196075;23;20236;-86
2023/05/07 01:11:59;;;;;;;7.60;5.65;;;8.80;99.90;;;;;;6197217;23;20175;-87
2023/05/07 01:14:30;;;;;;;6.25;5.65;;;8.80;99.90;;;;;;6194839;23;20174;-82
2023/05/07 01:16:58;;;;;;;8.60;7.20;;;8.70;99.90;;;;;;6194482;23;20178;-87
2023/05/07 01:19:26;;;;;;;8.65;6.40;;;8.70;99.90;;;;;;6193905;23;20187;-86
2023/05/07 01:22:02;;;;;;;6.05;5.43;;;8.70;99.90;;;;;;6193353;23;20191;-85
2023/05/07 01:24:30;;;;;;;7.68;6.93;;;8.70;99.90;;;;;;6191607;23;20242;-84
2023/05/07 01:26:57;;;;;;;8.45;5.88;;;8.60;99.90;;;;;;6191411;23;20184;-86
2023/05/07 01:29:24;;;;;;;7.78;6.55;;;8.50;99.90;;;;;;6193872;23;20187;-87
2023/05/07 01:31:52;;;;;;;8.57;7.72;;;8.60;99.90;;;;;;6193232;23;20179;-84
2023/05/07 01:34:22;;;;;;;7.95;7.18;;;8.60;99.90;;;;;;6193176;23;20189;-85
2023/05/07 01:36:49;;;;;;;11.15;8.32;;;8.40;99.90;;;;;;6193182;23;20613;-85
2023/05/07 01:39:17;;;;;;;8.55;7.70;;;8.40;99.90;;;;;;6193199;23;20186;-84
2023/05/07 01:41:44;;;;;;;9.95;7.25;;;8.40;99.90;;;;;;6194222;23;20178;-85
2023/05/07 01:44:13;;;;;;;7.88;7.10;;;8.40;99.90;;;;;;6193675;23;20200;-87
2023/05/07 01:46:40;;;;;;;8.77;7.97;;;8.30;99.90;;;;;;6192473;23;20187;-85
2023/05/07 01:49:07;;;;;;;7.95;7.22;;;8.40;99.90;;;;;;6193223;23;20185;-85
2023/05/07 01:51:36;;;;;;;8.38;7.57;;;8.40;99.90;;;;;;6193771;23;20214;-86
2023/05/07 01:54:04;;;;;;;7.30;6.60;;;8.40;99.90;;;;;;6193721;23;20489;-85
2023/05/07 01:56:31;;;;;;;7.80;7.10;;;8.50;99.90;;;;;;6194251;23;20187;-87
2023/05/07 01:58:57;;;;;;;7.80;6.90;;;8.40;99.90;;;;;;6194158;23;20186;-87
2023/05/07 02:01:25;;;;;;;7.60;6.90;;;8.40;99.90;;;;;;6193253;23;20480;-86
2023/05/07 02:03:53;;;;;;;7.78;6.88;;;8.40;99.90;;;;;;6193122;23;20259;-82
2023/05/07 02:06:20;;;;;;;15.43;7.65;;;8.50;99.90;;;;;;6193513;23;20185;-85
2023/05/07 02:08:48;;;;;;;7.80;7.10;;;8.50;99.90;;;;;;6223479;23;20182;-85
2023/05/07 02:11:15;;;;;;;8.05;7.35;;;8.50;99.90;;;;;;6223726;23;20222;-85
2023/05/07 02:13:42;;;;;;;9.45;8.55;;;8.50;99.90;;;;;;6236481;23;20176;-85
2023/05/07 02:16:09;;;;;;;7.10;6.40;;;8.50;99.90;;;;;;6241982;23;20163;-87
2023/05/07 02:18:38;;;;;;;7.22;6.50;;;8.50;99.90;;;;;;6240921;23;20186;-86
2023/05/07 02:21:05;;;;;;;7.35;6.65;;;8.60;99.90;;;;;;6231327;23;20178;-85
2023/05/07 02:23:32;;;;;;;6.53;5.93;;;8.40;99.90;;;;;;6228598;23;20178;-88
2023/05/07 02:25:59;;;;;;;7.85;5.75;;;8.50;99.90;;;;;;6227174;23;20188;-85
2023/05/07 02:28:27;;;;;;;6.70;5.50;;;8.50;99.90;;;;;;6223536;23;20209;-87
2023/05/07 02:30:54;;;;;;;7.40;6.70;;;8.50;99.90;;;;;;6222883;23;20186;-88
2023/05/07 02:33:21;;;;;;;6.00;5.40;;;8.50;99.90;;;;;;6223831;23;20177;-85
2023/05/07 02:35:47;;;;;;;5.95;5.35;;;8.50;99.90;;;;;;6223072;23;20194;-86
2023/05/07 02:38:14;;;;;;;8.07;6.38;;;8.50;99.90;;;;;;6197385;23;20459;-85
2023/05/07 02:40:41;;;;;;;8.27;6.63;;;8.60;99.90;;;;;;6223473;23;20233;-88
2023/05/07 02:43:09;;;;;;;6.07;5.20;;;8.50;99.90;;;;;;6196649;23;20482;-83
2023/05/07 02:45:37;;;;;;;7.35;6.70;;;8.50;99.90;;;;;;6223762;23;20211;-88
2023/05/07 02:48:07;;;;;;;7.88;6.72;;;8.50;99.90;;;;;;6222349;23;20216;-86
2023/05/07 02:50:34;;;;;;;6.55;5.95;;;8.40;99.90;;;;;;6222080;23;20454;-86
2023/05/07 02:53:02;;;;;;;9.73;7.47;;;8.50;99.90;;;;;;6222338;23;20193;-81
2023/05/07 02:55:31;;;;;;;8.18;6.20;;;8.40;99.90;;;;;;6223527;23;20194;-86
2023/05/07 02:57:58;;;;;;;6.10;5.50;;;8.50;99.90;;;;;;6222924;23;20644;-86
2023/05/07 03:00:25;;;;;;;6.70;6.00;;;8.50;99.90;;;;;;6223519;23;20182;-86
2023/05/07 03:02:54;;;;;;;8.15;6.18;;;8.50;99.90;;;;;;6222302;23;20184;-89
2023/05/07 03:05:21;;;;;;;8.75;6.43;;;8.50;99.90;;;;;;6222935;23;20245;-86
2023/05/07 03:07:49;;;;;;;6.38;5.75;;;8.50;99.90;;;;;;6223529;23;20248;-86
2023/05/07 03:10:16;;;;;;;6.72;6.10;;;8.40;99.90;;;;;;6224636;23;20189;-86
2023/05/07 03:12:43;;;;;;;8.45;7.65;;;8.40;99.90;;;;;;6222213;23;20232;-85
2023/05/07 03:15:12;;;;;;;6.28;5.68;;;8.30;99.90;;;;;;6222364;23;20247;-85
2023/05/07 03:17:39;;;;;;;6.88;6.18;;;8.30;99.90;;;;;;6223099;23;20319;-85
2023/05/07 03:20:07;;;;;;;9.40;7.45;;;8.30;99.90;;;;;;6222491;23;20428;-88
2023/05/07 03:22:35;;;;;;;8.07;6.45;;;8.40;99.90;;;;;;6222791;23;20282;-87
2023/05/07 03:25:03;;;;;;;6.82;5.70;;;8.40;99.90;;;;;;6221999;23;20206;-85
2023/05/07 03:27:30;;;;;;;8.50;6.60;;;8.40;99.90;;;;;;6196182;23;20220;-86
2023/05/07 03:29:56;;;;;;;6.47;5.88;;;8.40;99.90;;;;;;6222481;23;20207;-87
2023/05/07 03:32:23;;;;;;;6.80;6.00;;;8.30;99.90;;;;;;6222189;23;20188;-87
2023/05/07 03:34:50;;;;;;;7.93;6.57;;;8.40;99.90;;;;;;6225134;23;20178;-87
2023/05/07 03:37:18;;;;;;;9.23;6.75;;;8.40;99.90;;;;;;6225521;23;20166;-85
2023/05/07 03:39:45;;;;;;;8.93;6.05;;;8.40;99.90;;;;;;6223322;23;20186;-88
2023/05/07 03:42:11;;;;;;;7.78;6.22;;;8.40;99.90;;;;;;6221727;23;20185;-85
2023/05/07 03:44:38;;;;;;;7.15;5.95;;;8.30;99.90;;;;;;6194951;23;20205;-85
2023/05/07 03:47:05;;;;;;;10.23;5.63;;;8.30;99.90;;;;;;6195486;23;20197;-86
2023/05/07 03:49:33;;;;;;;5.80;5.30;;;8.30;99.90;;;;;;6222947;23;20479;-87
2023/05/07 03:52:00;;;;;;;5.85;5.35;;;8.30;99.90;;;;;;6223572;23;20214;-89
2023/05/07 03:54:27;;;;;;;5.80;5.25;;;8.30;99.90;;;;;;6222596;23;20759;-83
2023/05/07 03:56:54;;;;;;;5.28;4.80;;;8.30;99.90;;;;;;6196656;23;20205;-87
2023/05/07 03:59:22;;;;;;;5.43;5.00;;;8.30;99.90;;;;;;6223114;23;20197;-86
2023/05/07 04:01:48;;;;;;;7.05;5.75;;;8.40;99.90;;;;;;6223043;23;20212;-84
2023/05/07 04:04:18;;;;;;;6.00;5.13;;;8.30;99.90;;;;;;6222764;23;20244;-84
2023/05/07 04:06:45;;;;;;;5.47;4.40;;;8.40;99.90;;;;;;6224361;23;20194;-87
2023/05/07 04:09:13;;;;;;;4.95;4.45;;;8.40;99.90;;;;;;6207408;23;20168;-88
2023/05/07 04:11:40;;;;;;;11.90;5.93;;;8.50;99.90;;;;;;6233464;23;20174;-85
2023/05/07 04:14:09;;;;;;;6.05;5.22;;;8.60;99.90;;;;;;6202705;23;20178;-88
2023/05/07 04:16:35;;;;;;;6.00;4.70;;;8.60;99.90;;;;;;6197917;23;20177;-87
2023/05/07 04:19:03;;;;;;;5.22;4.60;;;8.60;99.90;;;;;;6221275;23;20352;-87
2023/05/07 04:21:30;;;;;;;6.20;4.32;;;8.50;99.90;;;;;;6193251;23;20184;-87
2023/05/07 04:23:58;;;;;;;6.45;4.50;;;8.50;99.90;;;;;;6218418;23;20189;-88
2023/05/07 04:26:25;;;;;;;4.72;4.00;;;8.50;99.90;;;;;;6194720;23;20415;-87
2023/05/07 04:28:54;;;;;;;5.90;4.43;;;8.40;99.90;;;;;;6222505;23;20184;-83
2023/05/07 04:31:21;;;;;;;5.65;5.18;;;8.30;99.90;;;;;;6221789;23;20199;-86
2023/05/07 04:33:48;;;;;;;6.40;4.43;;;8.30;99.90;;;;;;6221000;23;20187;-88
2023/05/07 04:36:15;;;;;;;5.47;5.00;;;8.30;99.90;;;;;;6221798;23;20211;-84
2023/05/07 04:38:45;;;;;;;6.35;5.65;;;8.60;99.90;;;;;;6223061;23;20235;-87
2023/05/07 04:41:12;;;;;;;5.20;4.70;;;8.50;99.90;;;;;;6197763;23;20189;-87
2023/05/07 04:43:41;;;;;;;7.75;5.60;;;8.50;99.90;;;;;;6227802;23;20169;-85
2023/05/07 04:46:08;;;;;;;4.60;4.20;;;8.40;99.90;;;;;;6198110;23;20202;-87
2023/05/07 04:48:35;;;;;;;4.78;4.38;;;8.60;99.90;;;;;;6199755;23;20383;-89
2023/05/07 04:51:02;;;;;;;4.95;4.55;;;8.60;99.90;;;;;;6233589;23;20177;-87
2023/05/07 04:53:29;;;;;;;5.80;5.30;;;8.50;99.90;;;;;;6241874;23;20170;-86
2023/05/07 04:55:57;;;;;;;4.80;4.40;;;8.50;99.90;;;;;;6242262;23;20190;-84
2023/05/07 04:58:24;;;;;;;6.40;5.80;;;8.60;99.90;;;;;;6203010;23;20194;-84
2023/05/07 05:00:52;;;;;;;5.97;4.75;;;8.70;99.90;;;;;;6225209;23;20176;-85
2023/05/07 05:03:18;;;;;;;4.15;3.85;;;8.70;99.90;;;;;;6223965;23;20502;-87
2023/05/07 05:05:46;;;;;;;5.15;4.65;;;8.70;99.90;;;;;;6224228;23;20206;-85
2023/05/07 05:08:13;;;;;;;4.63;4.18;;;8.80;99.90;;;;;;6224704;23;20194;-84
2023/05/07 05:10:41;;;;;;;4.45;4.00;;;8.70;99.90;;;;;;6228788;23;20211;-88
2023/05/07 05:13:09;;;;;;;5.95;4.45;;;8.80;99.90;;;;;;6226811;23;20186;-89
2023/05/07 05:15:36;;;;;;;4.05;3.65;;;8.90;99.90;;;;;;6226547;23;20253;-88
2023/05/07 05:18:05;;;;;;;5.88;3.53;;;9.00;99.90;;;;;;6225218;23;20505;-87
2023/05/07 05:20:33;;;;;;;4.03;3.30;;;8.80;99.90;;;;;;6224216;23;20183;-84
2023/05/07 05:23:00;;;;;;;3.65;3.35;;;8.90;99.90;;;;;;6224086;23;20180;-84
2023/05/07 05:25:28;;;;;;;3.50;3.20;;;8.90;99.90;;;;;;6224577;23;20253;-84
2023/05/07 05:27:55;;;;;;;4.65;4.30;;;9.00;99.90;;;;;;6223672;23;20230;-89
2023/05/07 05:30:22;;;;;;;4.78;4.00;;;9.00;99.90;;;;;;6197806;23;20499;-85
2023/05/07 05:32:49;;;;;;;4.95;4.18;;;8.90;99.90;;;;;;6225086;23;20183;-86
2023/05/07 05:35:16;;;;;;;4.22;3.83;;;8.90;99.90;;;;;;6226207;23;20195;-85
2023/05/07 05:37:42;;;;;;;5.38;4.50;;;8.80;99.90;;;;;;6224209;23;20187;-86
2023/05/07 05:40:10;;;;;;;3.75;3.45;;;8.80;99.90;;;;;;6225126;23;20426;-87
2023/05/07 05:42:39;;;;;;;3.95;3.58;;;8.80;99.90;;;;;;6224899;23;20182;-83
2023/05/07 05:45:07;;;;;;;4.95;4.50;;;8.80;99.90;;;;;;6223686;23;20201;-85
2023/05/07 05:47:34;;;;;;;5.45;4.75;;;8.80;99.90;;;;;;6224191;23;20189;-89
2023/05/07 05:50:01;;;;;;;5.53;4.95;;;8.80;99.90;;;;;;6197772;23;20211;-86
2023/05/07 05:52:27;;;;;;;4.35;3.95;;;8.90;99.90;;;;;;6224953;23;20374;-83
2023/05/07 05:54:54;;;;;;;4.65;4.25;;;8.80;99.90;;;;;;6224678;23;20583;-85
2023/05/07 05:57:23;;;;;;;4.15;3.80;;;8.80;99.90;;;;;;6226585;23;20186;-84
2023/05/07 05:59:54;;;;;;;4.75;4.35;;;8.80;99.90;;;;;;6215675;23;20180;-85
2023/05/07 06:02:21;;;;;;;4.75;4.30;;;9.00;99.90;;;;;;6243458;23;20170;-88
2023/05/07 06:04:48;;;;;;;4.93;4.55;;;9.10;99.90;;;;;;6238538;23;20209;-89
2023/05/07 06:07:17;;;;;;;6.68;4.18;;;9.00;99.90;;;;;;6227354;23;20238;-85
2023/05/07 06:09:44;;;;;;;5.00;4.50;;;9.00;99.90;;;;;;6199464;23;20190;-85
2023/05/07 06:12:12;;;;;;;5.15;3.90;;;8.80;99.90;;;;;;6225927;23;20206;-85
2023/05/07 06:14:38;;;;;;;4.70;4.30;;;9.00;99.90;;;;;;6223783;23;20490;-84
2023/05/07 06:17:06;;;;;;;4.18;3.88;;;9.30;99.90;;;;;;6225101;23;20222;-85
2023/05/07 06:19:33;;;;;;;4.53;4.13;;;9.60;99.90;;;;;;6224193;23;20206;-87
2023/05/07 06:22:03;;;;;;;6.55;3.85;;;9.50;99.90;;;;;;6197378;23;20176;-84
2023/05/07 06:24:29;;;;;;;7.30;6.60;;;9.40;99.90;;;;;;6224256;23;20187;-85
2023/05/07 06:26:59;;;;;;;4.97;4.45;;;9.30;99.90;;;;;;6224425;23;20500;-85
2023/05/07 06:29:31;;;;;;;3.38;3.08;;;9.00;99.90;;;;;;6224908;23;20180;-88
2023/05/07 06:32:09;;;;;;;5.15;3.38;;;9.00;99.90;;;;;;6225768;23;20178;-87
2023/05/07 06:34:39;;;;;;;8.25;4.20;;;9.10;99.90;;;;;;6223299;23;20233;-86
2023/05/07 06:37:06;;;;;;;3.78;3.03;;;9.40;99.90;;;;;;6224273;23;20193;-83
2023/05/07 06:39:33;;;;;;;2.95;2.65;;;9.40;99.90;;;;;;6224590;23;20693;-86
2023/05/07 06:42:04;;;;;;;4.88;3.47;;;9.10;99.90;;;;;;6222967;23;20228;-88
2023/05/07 06:44:33;;;;;;;3.70;3.40;;;9.10;99.90;;;;;;6223960;23;20201;-84
2023/05/07 06:47:01;;;;;;;3.40;3.10;;;9.10;99.90;;;;;;6224583;23;20184;-84
2023/05/07 06:49:29;;;;;;;5.25;3.22;;;9.20;99.90;;;;;;6229683;23;20187;-87
2023/05/07 06:51:56;;;;;;;3.90;3.60;;;9.20;99.90;;;;;;6204860;23;20437;-87
2023/05/07 06:54:23;;;;;;;5.68;4.00;;;9.30;99.90;;;;;;6231620;23;20221;-88
2023/05/07 06:56:50;;;;;;;3.50;3.20;;;9.40;99.90;;;;;;6228643;23;20183;-86
2023/05/07 06:59:19;;;;;;;3.67;3.38;;;9.30;99.90;;;;;;6225822;23;20629;-82
2023/05/07 07:01:46;;;;;;;4.88;3.80;;;8.90;99.90;;;;;;6222078;23;20203;-83
2023/05/07 07:04:12;;;;;;;4.15;3.75;;;8.80;99.90;;;;;;6223228;23;20183;-86
2023/05/07 07:06:39;;;;;;;4.05;3.75;;;8.90;99.90;;;;;;6223762;23;20235;-85
2023/05/07 07:09:09;;;;;;;4.35;3.95;;;9.00;99.90;;;;;;6224191;23;20167;-88
2023/05/07 07:11:36;;;;;;;4.28;3.83;;;9.00;99.90;;;;;;6196452;23;20491;-90
2023/05/07 07:14:04;;;;;;;3.53;3.22;;;9.10;99.90;;;;;;6222826;23;20191;-84
2023/05/07 07:16:34;;;;;;;3.35;3.05;;;9.20;99.90;;;;;;6223781;23;20238;-85
2023/05/07 07:19:01;;;;;;;3.60;3.22;;;9.00;99.90;;;;;;6223813;23;20201;-89
2023/05/07 07:21:31;;;;;;;3.92;3.58;;;9.10;99.90;;;;;;6223914;23;20179;-87
2023/05/07 07:24:00;;;;;;;4.18;3.88;;;9.20;99.90;;;;;;6197475;23;20230;-84
2023/05/07 07:26:27;;;;;;;2.97;2.78;;;9.20;99.90;;;;;;6221260;23;20205;-86
2023/05/07 07:28:53;;;;;;;3.90;3.42;;;9.20;99.90;;;;;;6222848;23;20209;-87
2023/05/07 07:31:21;;;;;;;7.22;3.05;;;9.40;99.90;;;;;;6221948;23;20175;-85
2023/05/07 07:33:49;;;;;;;2.45;2.35;;;9.60;99.90;;;;;;6222021;23;20225;-84
2023/05/07 07:36:18;;;;;;;2.90;2.60;;;9.80;99.90;;;;;;6195837;23;20227;-87
2023/05/07 07:38:47;;;;;;;5.78;3.03;;;9.90;99.90;;;;;;6223016;23;20212;-86
2023/05/07 07:41:16;;;;;;;2.70;2.30;;;10.00;99.90;;;;;;6222195;23;20251;-86
2023/05/07 07:43:43;;;;;;;2.50;2.30;;;10.20;99.90;;;;;;6222920;23;20222;-86
2023/05/07 07:46:10;;;;;;;2.63;2.47;;;10.40;99.90;;;;;;6222175;23;20652;-84
2023/05/07 07:48:40;;;;;;;3.97;2.30;;;10.70;99.90;;;;;;6222809;23;20569;-84
2023/05/07 07:51:06;;;;;;;2.13;2.00;;;10.70;99.90;;;;;;6221741;23;20198;-84
2023/05/07 07:53:33;;;;;;;2.30;2.10;;;10.60;99.90;;;;;;6223038;23;20207;-86
2023/05/07 07:56:02;;;;;;;3.97;2.88;;;10.30;99.90;;;;;;6221935;23;20180;-86
2023/05/07 07:58:31;;;;;;;4.43;2.65;;;10.30;99.90;;;;;;6223978;23;20172;-87
2023/05/07 08:00:58;;;;;;;5.10;3.50;;;10.20;99.90;;;;;;6225257;23;20191;-85
2023/05/07 08:03:25;;;;;;;3.90;2.90;;;10.10;99.90;;;;;;6224294;23;20195;-88
2023/05/07 08:05:52;;;;;;;2.20;2.10;;;9.90;99.90;;;;;;6223529;23;20203;-87
2023/05/07 08:08:20;;;;;;;5.72;2.90;;;9.70;99.90;;;;;;6224369;23;20183;-86
2023/05/07 08:10:49;;;;;;;3.50;3.20;;;9.40;99.90;;;;;;6224763;23;20578;-84
2023/05/07 08:13:17;;;;;;;5.65;4.70;;;9.20;99.90;;;;;;6196959;23;20206;-86
2023/05/07 08:15:44;;;;;;;4.35;3.95;;;9.20;99.90;;;;;;6224952;23;20232;-87
2023/05/07 08:18:11;;;;;;;5.15;4.65;;;9.10;99.90;;;;;;6198041;23;20175;-83
2023/05/07 08:20:39;;;;;;;4.50;4.18;;;9.30;99.90;;;;;;6224533;23;20202;-85
2023/05/07 08:23:07;;;;;;;6.57;4.55;;;9.20;99.90;;;;;;6223982;23;20283;-87
2023/05/07 08:25:34;;;;;;;5.70;4.65;;;9.00;99.90;;;;;;6198806;23;20235;-83
2023/05/07 08:28:03;;;;;;;5.35;4.80;;;9.00;99.90;;;;;;6226509;23;20225;-85
2023/05/07 08:30:30;;;;;;;4.85;3.80;;;9.10;99.90;;;;;;6234236;23;20183;-83
2023/05/07 08:32:59;;;;;;;4.53;4.13;;;9.10;99.90;;;;;;6228554;23;20186;-84
2023/05/07 08:35:26;;;;;;;5.45;4.95;;;9.00;99.90;;;;;;6226764;23;20171;-84
2023/05/07 08:37:54;;;;;;;5.38;4.88;;;9.10;99.90;;;;;;6201041;23;20175;-82
2023/05/07 08:40:25;;;;;;;4.75;4.35;;;9.20;99.90;;;;;;6226379;23;20218;-84
2023/05/07 08:42:53;;;;;;;6.82;5.40;;;8.90;99.90;;;;;;6199445;23;20239;-87
2023/05/07 08:45:20;;;;;;;7.47;5.38;;;9.00;99.90;;;;;;6199671;23;20197;-83
2023/05/07 08:47:52;;;;;;;7.50;4.68;;;9.10;99.90;;;;;;6199976;23;20180;-86
2023/05/07 08:50:20;;;;;;;5.10;4.60;;;9.40;99.90;;;;;;6227159;23;20194;-84
2023/05/07 08:52:47;;;;;;;5.15;4.65;;;9.30;99.90;;;;;;6225888;23;20187;-82
2023/05/07 08:55:15;;;;;;;4.68;4.20;;;9.30;99.90;;;;;;6227587;23;20176;-83
2023/05/07 08:57:42;;;;;;;6.25;5.00;;;9.20;99.90;;;;;;6234708;23;20191;-85
2023/05/07 09:00:09;;;;;;;5.65;5.05;;;9.00;99.90;;;;;;6239068;23;20189;-87
2023/05/07 09:02:38;;;;;;;6.18;5.40;;;9.20;99.90;;;;;;6211103;23;20264;-81
2023/05/07 09:05:06;;;;;;;5.88;5.35;;;9.00;99.90;;;;;;6228204;23;20179;-80
2023/05/07 09:07:33;;;;;;;6.45;5.85;;;8.80;99.90;;;;;;6195766;23;20247;-83
2023/05/07 09:10:06;;;;;;;8.40;6.10;;;8.70;99.90;;;;;;6200619;23;20178;-88
2023/05/07 09:12:35;;;;;;;8.65;7.22;;;8.70;99.90;;;;;;6208699;23;20178;-85
2023/05/07 09:15:02;;;;;;;8.10;6.18;;;8.70;99.90;;;;;;6202582;23;20165;-84
2023/05/07 09:17:29;;;;;;;6.80;6.20;;;8.90;99.90;;;;;;6195104;23;20188;-82
2023/05/07 09:20:01;;;;;;;5.00;4.53;;;9.10;99.90;;;;;;6196268;23;20259;-85
2023/05/07 09:22:31;;;;;;;5.38;4.60;;;9.20;99.90;;;;;;6196883;23;20173;-87
2023/05/07 09:24:59;;;;;;;4.72;4.32;;;9.40;99.90;;;;;;6197634;23;20203;-85
2023/05/07 09:27:26;;;;;;;6.47;5.82;;;9.40;99.90;;;;;;6197389;23;20210;-84
2023/05/07 09:29:55;;;;;;;5.20;4.70;;;9.30;99.90;;;;;;6197576;23;20239;-82
2023/05/07 09:32:22;;;;;;;6.00;5.43;;;9.30;99.90;;;;;;6195679;23;20186;-82
2023/05/07 09:34:49;;;;;;;6.40;5.90;;;9.30;99.90;;;;;;6193959;23;20192;-84
2023/05/07 09:37:17;;;;;;;4.68;4.38;;;9.30;99.90;;;;;;6190757;23;20230;-86
2023/05/07 09:39:51;;;;;;;4.93;4.53;;;9.50;99.90;;;;;;6192328;23;20163;-85
2023/05/07 09:42:24;;;;;;;10.45;5.35;;;9.50;99.90;;;;;;6195232;23;20157;-84
2023/05/07 09:44:51;;;;;;;7.18;4.72;;;9.50;99.90;;;;;;6207879;23;20277;-86
2023/05/07 09:47:24;;;;;;;4.55;4.18;;;9.60;99.90;;;;;;6212207;23;20188;-85
2023/05/07 09:49:57;;;;;;;9.27;4.65;;;9.80;99.90;;;;;;6210307;23;20186;-84
2023/05/07 09:52:28;;;;;;;5.05;4.57;;;9.90;99.90;;;;;;6194816;23;20260;-86
2023/05/07 09:54:59;;;;;;;5.85;5.25;;;9.60;99.90;;;;;;6194224;23;20511;-85
2023/05/07 09:57:27;;;;;;;6.15;5.35;;;9.40;99.90;;;;;;6192423;23;20186;-85
2023/05/07 09:59:55;;;;;;;7.55;6.75;;;9.70;99.90;;;;;;6193092;23;20184;-87
2023/05/07 10:02:25;;;;;;;6.03;5.43;;;10.30;99.90;;;;;;6193570;23;20605;-86
2023/05/07 10:04:53;;;;;;;8.18;6.05;;;10.80;99.90;;;;;;6195257;23;20173;-86
2023/05/07 10:07:24;;;;;;;7.32;4.63;;;10.60;99.90;;;;;;6210140;23;20208;-85
2023/05/07 10:09:52;;;;;;;6.75;5.30;;;11.20;99.90;;;;;;6225858;23;20488;-87
2023/05/07 10:12:20;;;;;;;5.18;4.72;;;11.60;99.90;;;;;;6200228;23;20387;-87
2023/05/07 10:14:48;;;;;;;5.15;4.75;;;11.40;99.90;;;;;;6200232;23;20240;-85
2023/05/07 10:17:17;;;;;;;5.30;4.80;;;11.60;99.90;;;;;;6226375;23;20234;-84
2023/05/07 10:19:46;;;;;;;4.65;4.25;;;11.50;99.90;;;;;;6227550;23;20180;-83
2023/05/07 10:22:15;;;;;;;7.90;4.80;;;11.50;99.90;;;;;;6200452;23;20670;-85
2023/05/07 10:24:47;;;;;;;5.28;4.45;;;11.30;99.90;;;;;;6226088;23;20254;-86
2023/05/07 10:27:16;;;;;;;4.28;3.92;;;11.30;99.90;;;;;;6198434;23;20646;-86
2023/05/07 10:30:03;;;;;;;4.47;4.07;;;11.60;99.90;;;;;;6195056;23;20187;-86
2023/05/07 10:32:35;;;;;;;4.05;3.75;;;11.50;99.90;;;;;;6224859;23;20183;-85
2023/05/07 10:35:09;;;;;;;4.93;4.40;;;11.80;99.90;;;;;;6227775;23;20201;-82
2023/05/07 10:37:36;;;;;;;4.32;3.92;;;12.10;99.90;;;;;;6224379;23;20313;-83
2023/05/07 10:40:04;;;;;;;4.25;3.95;;;12.10;99.90;;;;;;6222767;23;20168;-84
2023/05/07 10:42:34;;;;;;;5.30;4.80;;;11.80;99.90;;;;;;6222330;23;20194;-84
2023/05/07 10:45:14;;;;;;;3.33;3.03;;;11.60;99.90;;;;;;6225673;23;20222;-85
2023/05/07 10:48:09;;;;;;;5.30;4.30;;;11.40;99.90;;;;;;6223604;23;20209;-85
2023/05/07 10:51:20;;;;;;;3.65;3.35;;;11.20;99.90;;;;;;6206956;23;20187;-86
2023/05/07 10:53:47;;;;;;;3.58;3.28;;;10.80;99.90;;;;;;6211183;23;20182;-88
2023/05/07 10:56:17;;;;;;;3.08;2.80;;;10.90;99.90;;;;;;6237099;23;20179;-86
2023/05/07 10:58:43;;;;;;;3.78;3.42;;;11.00;99.90;;;;;;6231027;23;20340;-86
2023/05/07 11:01:12;;;;;;;4.80;3.75;;;11.10;99.90;;;;;;6224056;23;20206;-83
2023/05/07 11:04:13;;;;;;;4.07;3.25;;;11.30;99.90;;;;;;6223460;23;20188;-85
2023/05/07 11:06:40;;;;;;;3.75;3.20;;;11.00;99.90;;;;;;6156559;23;20219;-85
2023/05/07 11:09:07;;;;;;;3.28;2.97;;;11.00;99.90;;;;;;6227530;22;20214;-87
2023/05/07 11:11:55;;;;;;;3.55;3.25;;;11.00;99.90;;;;;;6191496;23;20195;-86
2023/05/07 11:14:58;;;;;;;4.85;4.45;;;11.30;99.90;;;;;;6167620;23;20199;-83
2023/05/07 11:17:25;;;;;;;7.78;3.25;;;11.30;99.90;;;;;;6075440;23;20186;-86
2023/05/07 11:19:53;;;;;;;4.78;3.47;;;11.30;99.90;;;;;;6153023;23;20189;-87
2023/05/07 11:22:47;;;;;;;4.15;3.85;;;11.20;99.90;;;;;;6194858;23;20188;-83
2023/05/07 11:25:21;;;;;;;4.65;3.90;;;11.40;99.90;;;;;;6189648;23;20180;-85
2023/05/07 11:27:49;;;;;;;3.80;3.50;;;11.80;99.90;;;;;;6165645;23;20205;-87
2023/05/07 11:30:19;;;;;;;4.60;4.03;;;12.00;99.90;;;;;;6192261;23;20417;-87
2023/05/07 11:32:48;;;;;;;3.88;3.58;;;12.00;99.90;;;;;;6191697;23;20176;-84
2023/05/07 11:35:15;;;;;;;6.65;6.05;;;12.00;99.90;;;;;;6165071;23;20184;-87
2023/05/07 11:37:45;;;;;;;4.40;3.45;;;11.40;99.90;;;;;;6164753;23;20176;-87
2023/05/07 11:40:13;;;;;;;7.10;3.15;;;11.20;99.90;;;;;;6165097;23;20246;-84
2023/05/07 11:42:42;;;;;;;4.05;3.75;;;10.90;99.90;;;;;;6193673;23;20202;-84
2023/05/07 11:45:10;;;;;;;4.00;3.70;;;10.80;99.90;;;;;;6199751;23;20185;-87
2023/05/07 11:47:37;;;;;;;4.65;4.25;;;10.90;99.90;;;;;;6206774;23;20203;-84
2023/05/07 11:50:10;;;;;;;3.58;3.28;;;11.00;99.90;;;;;;6198921;23;20184;-85
2023/05/07 11:52:38;;;;;;;3.05;2.75;;;11.30;99.90;;;;;;6193159;23;20161;-83
2023/05/07 11:55:07;;;;;;;5.53;4.63;;;11.80;99.90;;;;;;6190815;23;20379;-87
2023/05/07 11:57:34;;;;;;;3.47;2.95;;;11.70;99.90;;;;;;6166175;23;20240;-83
2023/05/07 12:00:04;;;;;;;3.00;2.78;;;11.80;99.90;;;;;;6165637;23;20428;-85
2023/05/07 12:02:31;;;;;;;3.63;3.33;;;11.40;99.90;;;;;;6192836;23;20508;-83
2023/05/07 12:05:00;;;;;;;3.60;3.30;;;11.30;99.90;;;;;;6165671;23;20208;-88
2023/05/07 12:07:27;;;;;;;5.05;3.85;;;11.20;99.90;;;;;;6191707;23;20200;-84
2023/05/07 12:09:54;;;;;;;3.55;3.28;;;11.40;99.90;;;;;;6191547;23;20251;-86
2023/05/07 12:12:21;;;;;;;5.95;3.97;;;11.60;99.90;;;;;;6190630;23;20192;-85
2023/05/07 12:14:48;;;;;;;3.05;2.85;;;11.40;99.90;;;;;;6188945;23;20453;-85
2023/05/07 12:17:16;;;;;;;4.80;4.15;;;11.50;99.90;;;;;;6190300;23;20192;-85
2023/05/07 12:19:44;;;;;;;4.03;3.42;;;11.60;99.90;;;;;;6190634;23;20228;-86
2023/05/07 12:22:11;;;;;;;2.88;2.60;;;11.60;99.90;;;;;;6189259;23;20504;-82
2023/05/07 12:24:43;;;;;;;5.20;3.50;;;11.50;99.90;;;;;;6164292;23;20227;-87
2023/05/07 12:27:10;;;;;;;4.28;3.88;;;11.70;99.90;;;;;;6188877;23;20209;-83
2023/05/07 12:29:39;;;;;;;4.10;3.80;;;11.30;99.90;;;;;;6188550;23;20230;-87
2023/05/07 12:32:12;;;;;;;4.60;3.40;;;11.20;99.90;;;;;;6163465;23;20176;-82
2023/05/07 12:34:39;;;;;;;4.10;3.58;;;11.20;99.90;;;;;;6188399;23;20735;-84
2023/05/07 12:37:12;;;;;;;5.05;3.75;;;11.10;99.90;;;;;;6190847;23;20228;-85
2023/05/07 12:39:47;;;;;;;4.88;4.13;;;11.00;99.90;;;;;;6186148;23;20182;-83
2023/05/07 12:42:20;;;;;;;3.97;3.67;;;10.90;99.90;;;;;;6188385;23;20195;-83
2023/05/07 12:44:47;;;;;;;4.20;3.90;;;10.80;99.90;;;;;;6189863;23;20423;-83
2023/05/07 12:47:15;;;;;;;3.13;2.92;;;11.30;99.90;;;;;;6191513;23;20200;-83
2023/05/07 12:49:42;;;;;;;5.15;3.95;;;11.40;99.90;;;;;;6202601;23;20176;-83
2023/05/07 12:52:11;;;;;;;3.65;3.35;;;11.30;99.90;;;;;;6206451;23;20168;-85
2023/05/07 12:54:38;;;;;;;3.83;3.45;;;11.30;99.90;;;;;;6205138;23;20168;-81
2023/05/07 12:57:09;;;;;;;3.70;3.40;;;11.30;99.90;;;;;;6179601;23;20171;-87
2023/05/07 12:59:38;;;;;;;4.32;3.92;;;11.20;99.90;;;;;;6207020;23;20157;-85
2023/05/07 13:02:05;;;;;;;8.40;3.47;;;11.10;99.90;;;;;;6207162;23;20168;-87